Flight Track Log - Related Links

Times and Time Zones

All times are in EDT time to prevent confusion due to time zone crossing. See the UCA768A flight status page for this flight to view local times or setup timezone preferences in your user account.

Time Position Orientation Groundspeed Altitude Reporting Facility
EDT Latitude Longitude Course Direction KTS MPH feet Rate Location/Type
Mon 10:10:15 AM 42.9077 -83.6713 12° North  Level FlightAware
Mon 10:11:11 AM 42.9758 -83.6508 121° Southeast 177 204 3,100  Level Cleveland Center
Mon 10:12:11 AM 42.9483 -83.5872 121° Southeast 196 226 3,900 898 Climbing Cleveland Center
Mon 10:13:18 AM 42.9131 -83.5058 120° Southeast 218 251 5,000 541 Climbing Cleveland Center
Mon 10:14:13 AM 42.8833 -83.4367 120° Southeast 238 274 5,000  Level Cleveland Center
Mon 10:15:20 AM 42.8439 -83.3442 123° Southeast 254 292 5,000  Level Cleveland Center
Mon 10:16:00 AM 42.8161 -83.2864 142° Southeast 250 288 5,000  Level Cleveland Center
Mon 10:17:09 AM 42.7550 -83.2214 141° Southeast 246 283 5,000  Level Cleveland Center
Mon 10:18:10 AM 42.7022 -83.1628 141° Southeast 248 285 5,000  Level Cleveland Center
Mon 10:19:00 AM 42.6594 -83.1158 138° Southeast 246 283 5,000  Level Cleveland Center
Mon 10:20:00 AM 42.6108 -83.0572 141° Southeast 246 283 5,000  Level Cleveland Center
Mon 10:21:00 AM 42.5578 -82.9989 142° Southeast 246 283 5,000  Level Cleveland Center
Mon 10:22:00 AM 42.5028 -82.9406 140° Southeast 241 277 5,000  Level Cleveland Center
Mon 10:23:00 AM 42.4417 -82.8706 139° Southeast 247 284 5,000  Level Cleveland Center
Mon 10:24:00 AM 42.3908 -82.8097 142° Southeast 247 284 5,000  Level Cleveland Center
Mon 10:25:00 AM 42.3356 -82.7517 140° Southeast 250 288 5,000  Level Cleveland Center
Mon 10:26:00 AM 42.2783 -82.6878 139° Southeast 250 288 5,000  Level Cleveland Center
Mon 10:27:00 AM 42.2333 -82.6358 140° Southeast 268 308 5,000  Level Cleveland Center
Mon 10:28:00 AM 42.1803 -82.5753 140° Southeast 274 315 5,000  Level Cleveland Center
Mon 10:29:00 AM 42.1292 -82.5178 142° Southeast 258 297 5,000  Level Cleveland Center
Mon 10:30:00 AM 42.0800 -82.4658 138° Southeast 248 285 5,000  Level Cleveland Center
Mon 10:31:00 AM 42.0308 -82.4058 142° Southeast 248 285 5,000 58 Level Cleveland Center
Mon 10:31:44 AM 41.9817 -82.3542 139° Southeast 251 289 5,100 57 Climbing Cleveland Center
Mon 10:32:45 AM 41.9283 -82.2911 141° Southeast 253 291 5,100  Level Cleveland Center
Mon 10:33:46 AM 41.8750 -82.2339 136° Southeast 251 289 5,100  Level Cleveland Center
Mon 10:35:00 AM 41.8136 -82.1544 118° Southeast 253 291 5,100 -50 Level Cleveland Center
Mon 10:35:47 AM 41.7875 -82.0897 125° Southeast 254 292 5,000 -59 Descending Cleveland Center
Mon 10:36:42 AM 41.7508 -82.0192 122° Southeast 242 278 5,000  Level Cleveland Center
Mon 10:37:43 AM 41.7164 -81.9461 147° Southeast 235 270 5,000 -522 Level Cleveland Center
Mon 10:38:37 AM 41.6708 -81.9064 149° Southeast 211 243 4,000 -788 Descending Cleveland Center
Mon 10:40:00 AM 41.6028 -81.8522 158° South 207 238 3,200 -429 Descending Cleveland Center
Mon 10:40:57 AM 41.5550 -81.8261 171° South 200 230 3,000 -98 Descending Cleveland Center
Mon 10:42:03 AM 41.4969 -81.8142 169° South 194 223 3,000 -378 Level Cleveland Center
Mon 10:43:04 AM 41.4614 -81.8050 185° South 120 138 2,200 -828 Descending Cleveland Center
Mon 10:43:59 AM 41.4386 -81.8075 224° Southwest 95 109 1,400 -716 Descending Cleveland Center
Mon 10:44:53 AM 41.4175 -81.8347 224° Southwest 116 133 900 -556 Descending Cleveland Center

Login

Don't have an account? Register now (free) for customized features, flight alerts, and more!